createdAt,value
2018-09-27T00:01:09.954Z,21.07
2018-09-27T00:03:37.943Z,22.60
2018-09-27T00:06:04.997Z,23.73
2018-09-27T00:08:32.765Z,27.00
2018-09-27T00:11:01.039Z,22.37
2018-09-27T00:13:29.121Z,19.13
2018-09-27T00:15:56.612Z,22.20
2018-09-27T00:18:23.528Z,22.13
2018-09-27T00:20:50.454Z,20.60
2018-09-27T00:23:17.372Z,20.83
2018-09-27T00:25:44.285Z,22.93
2018-09-27T00:28:11.195Z,16.43
2018-09-27T00:30:38.712Z,22.60
2018-09-27T00:33:05.943Z,22.40
2018-09-27T00:35:39.809Z,23.60
2018-09-27T00:38:06.916Z,20.43
2018-09-27T00:40:33.955Z,26.87
2018-09-27T00:43:00.929Z,23.63
2018-09-27T00:45:27.847Z,28.47
2018-09-27T00:47:54.741Z,27.40
2018-09-27T00:50:21.663Z,22.87
2018-09-27T00:52:48.629Z,29.03
2018-09-27T00:55:15.552Z,26.97
2018-09-27T00:57:42.501Z,24.60
2018-09-27T01:00:09.472Z,25.53
2018-09-27T01:02:36.490Z,27.70
2018-09-27T01:05:03.485Z,33.27
2018-09-27T01:07:30.385Z,30.77
2018-09-27T01:09:57.288Z,29.87
2018-09-27T01:12:24.185Z,31.60
2018-09-27T01:14:51.109Z,30.20
2018-09-27T01:17:18.025Z,29.73
2018-09-27T01:19:44.973Z,28.87
2018-09-27T01:22:11.912Z,29.03
2018-09-27T01:24:38.811Z,29.77
2018-09-27T01:27:05.736Z,25.93
2018-09-27T01:29:32.670Z,27.03
2018-09-27T01:31:59.597Z,20.37
2018-09-27T01:34:26.492Z,35.17
2018-09-27T01:36:53.410Z,25.17
2018-09-27T01:39:20.353Z,34.67
2018-09-27T01:41:47.292Z,28.40
2018-09-27T01:44:14.225Z,25.40
2018-09-27T01:46:41.167Z,28.73
2018-09-27T01:49:08.109Z,31.97
2018-09-27T01:51:35.020Z,25.73
2018-09-27T01:54:01.936Z,28.83
2018-09-27T01:56:28.912Z,29.57
2018-09-27T01:58:55.830Z,37.47
2018-09-27T02:01:22.753Z,28.67
2018-09-27T02:03:49.661Z,28.67
2018-09-27T02:06:16.578Z,31.97
2018-09-27T02:08:43.478Z,31.93
2018-09-27T02:11:10.412Z,30.80
2018-09-27T02:13:37.348Z,33.73
2018-09-27T02:16:04.281Z,35.63
2018-09-27T02:18:31.191Z,33.90
2018-09-27T02:20:58.115Z,26.63
2018-09-27T02:23:25.026Z,35.10
2018-09-27T02:25:51.952Z,33.77
2018-09-27T02:28:18.836Z,35.13
2018-09-27T02:30:45.802Z,34.40
2018-09-27T02:33:12.749Z,30.43
2018-09-27T02:35:39.770Z,29.57
2018-09-27T02:38:06.751Z,37.43
2018-09-27T02:40:33.721Z,28.57
2018-09-27T02:45:34.455Z,36.30
2018-09-27T02:48:01.411Z,37.73
2018-09-27T02:50:28.386Z,36.17
2018-09-27T02:52:55.346Z,29.73
2018-09-27T02:55:22.285Z,34.23
2018-09-27T02:57:49.241Z,31.10
2018-09-27T03:00:16.193Z,25.90
2018-09-27T03:02:43.168Z,31.00
2018-09-27T03:05:10.115Z,29.37
2018-09-27T03:07:37.069Z,30.40
2018-09-27T03:10:04.280Z,33.27
2018-09-27T03:12:31.438Z,35.40
2018-09-27T03:14:58.363Z,31.60
2018-09-27T03:17:25.311Z,32.90
2018-09-27T03:19:52.247Z,28.50
2018-09-27T03:22:19.195Z,30.60
2018-09-27T03:24:46.123Z,30.77
2018-09-27T03:27:13.089Z,29.53
2018-09-27T03:29:42.128Z,27.87
2018-09-27T03:32:09.119Z,38.47
2018-09-27T03:34:36.100Z,28.67
2018-09-27T03:37:03.057Z,27.87
2018-09-27T03:39:30.011Z,34.13
2018-09-27T03:41:56.986Z,27.83
2018-09-27T03:44:23.930Z,25.20
2018-09-27T03:46:50.971Z,28.17
2018-09-27T03:49:17.904Z,34.03
2018-09-27T03:51:44.871Z,26.30
2018-09-27T03:54:11.819Z,25.77
2018-09-27T03:56:38.794Z,31.37
2018-09-27T03:59:05.745Z,34.93
2018-09-27T04:01:32.790Z,28.27
2018-09-27T04:03:59.733Z,31.27
2018-09-27T04:06:26.681Z,28.77
2018-09-27T04:08:53.640Z,29.40
2018-09-27T04:11:20.595Z,28.93
2018-09-27T04:13:47.746Z,29.40
2018-09-27T04:16:14.725Z,34.60
2018-09-27T04:18:41.680Z,31.73
2018-09-27T04:21:08.633Z,33.07
2018-09-27T04:23:35.571Z,31.10
2018-09-27T04:26:02.522Z,29.60
2018-09-27T04:28:29.477Z,33.07
2018-09-27T04:30:56.430Z,28.17
2018-09-27T04:33:23.377Z,31.77
2018-09-27T04:35:50.301Z,29.67
2018-09-27T04:38:17.233Z,32.37
2018-09-27T04:40:44.145Z,26.30
2018-09-27T04:43:11.088Z,33.53
2018-09-27T04:45:38.309Z,26.97
2018-09-27T04:48:05.449Z,29.13
2018-09-27T04:50:32.365Z,24.07
2018-09-27T04:52:59.308Z,30.03
2018-09-27T04:55:26.260Z,26.80
2018-09-27T04:57:53.217Z,27.67
2018-09-27T05:00:20.166Z,29.90
2018-09-27T05:02:47.095Z,27.50
2018-09-27T05:05:14.255Z,33.80
2018-09-27T05:07:41.409Z,31.03
2018-09-27T05:10:08.344Z,30.43
2018-09-27T05:12:35.304Z,30.37
2018-09-27T05:15:02.226Z,23.73
2018-09-27T05:17:29.166Z,28.90
2018-09-27T05:19:56.343Z,22.70
2018-09-27T05:22:23.285Z,32.10
2018-09-27T05:24:50.200Z,29.57
2018-09-27T05:27:17.161Z,28.40
2018-09-27T05:29:44.076Z,29.50
2018-09-27T05:32:11.052Z,21.57
2018-09-27T05:34:38.022Z,29.60
2018-09-27T05:37:05.005Z,32.27
2018-09-27T05:39:31.984Z,31.77
2018-09-27T05:41:58.913Z,25.07
2018-09-27T05:44:25.866Z,27.43
2018-09-27T05:46:52.812Z,29.53
2018-09-27T05:49:19.748Z,28.07
2018-09-27T05:51:46.703Z,28.20
2018-09-27T05:54:13.648Z,31.30
2018-09-27T05:56:40.576Z,26.73
2018-09-27T05:59:07.955Z,28.60
2018-09-27T06:01:34.873Z,32.60
2018-09-27T06:04:01.822Z,23.97
2018-09-27T06:06:29.533Z,32.73
2018-09-27T06:08:56.476Z,31.60
2018-09-27T06:11:23.447Z,32.40
2018-09-27T06:13:50.340Z,29.00
2018-09-27T06:16:17.258Z,29.33
2018-09-27T06:18:44.200Z,26.60
2018-09-27T06:21:11.133Z,26.30
2018-09-27T06:23:38.061Z,24.83
2018-09-27T06:26:05.270Z,23.30
2018-09-27T06:28:32.200Z,31.67
2018-09-27T06:30:59.125Z,30.43
2018-09-27T06:33:26.141Z,33.30
2018-09-27T06:35:53.042Z,32.87
2018-09-27T06:38:20.289Z,26.03
2018-09-27T06:40:47.281Z,21.73
2018-09-27T06:43:14.237Z,29.40
2018-09-27T06:45:41.230Z,27.57
2018-09-27T06:48:08.168Z,24.47
2018-09-27T06:50:35.145Z,27.47
2018-09-27T06:53:02.089Z,25.87
2018-09-27T06:55:29.195Z,25.20
2018-09-27T06:57:56.033Z,31.33
2018-09-27T07:00:22.992Z,31.17
2018-09-27T07:02:49.942Z,25.97
2018-09-27T07:05:16.889Z,27.00
2018-09-27T07:07:43.844Z,27.13
2018-09-27T07:10:10.800Z,24.07
2018-09-27T07:12:37.758Z,25.87
2018-09-27T07:15:04.842Z,27.73
2018-09-27T07:17:31.793Z,22.27
2018-09-27T07:19:58.745Z,22.67
2018-09-27T07:22:25.674Z,25.63
2018-09-27T07:24:52.615Z,26.83
2018-09-27T07:27:19.569Z,24.73
2018-09-27T07:29:46.510Z,27.80
2018-09-27T07:32:13.437Z,26.03
2018-09-27T07:34:40.398Z,22.20
2018-09-27T07:37:07.313Z,23.83
2018-09-27T07:39:34.249Z,28.00
2018-09-27T07:42:01.170Z,20.00
2018-09-27T07:44:28.225Z,20.50
2018-09-27T07:46:55.056Z,21.77
2018-09-27T07:49:21.993Z,29.40
2018-09-27T07:51:48.929Z,25.57
2018-09-27T07:54:15.902Z,19.77
2018-09-27T07:56:42.939Z,25.20
2018-09-27T07:59:09.842Z,22.83
2018-09-27T08:01:36.755Z,25.43
2018-09-27T08:04:03.739Z,20.27
2018-09-27T08:06:30.709Z,21.53
2018-09-27T08:08:57.647Z,18.63
2018-09-27T08:11:24.667Z,19.27
2018-09-27T08:13:51.532Z,24.67
2018-09-27T08:16:18.451Z,22.10
2018-09-27T08:18:45.377Z,21.10
2018-09-27T08:21:12.427Z,21.77
2018-09-27T08:23:39.260Z,18.80
2018-09-27T08:26:06.205Z,20.03
2018-09-27T08:28:33.161Z,16.60
2018-09-27T08:31:00.384Z,17.27
2018-09-27T08:33:27.173Z,15.53
2018-09-27T08:35:54.142Z,16.87
2018-09-27T08:38:21.121Z,18.97
2018-09-27T08:40:48.077Z,15.17
2018-09-27T08:43:15.022Z,16.90
2018-09-27T08:45:42.127Z,13.43
2018-09-27T08:48:08.952Z,19.77
2018-09-27T08:50:35.915Z,17.97
2018-09-27T08:53:03.069Z,16.53
2018-09-27T08:55:30.076Z,16.63
2018-09-27T08:57:56.989Z,16.27
2018-09-27T09:00:24.027Z,18.13
2018-09-27T09:02:50.965Z,19.97
2018-09-27T09:05:17.938Z,23.03
2018-09-27T09:07:44.952Z,19.90
2018-09-27T09:10:11.893Z,17.03
2018-09-27T09:12:38.841Z,16.33
2018-09-27T09:15:05.849Z,16.97
2018-09-27T09:17:32.776Z,15.70
2018-09-27T09:20:00.102Z,16.87
2018-09-27T09:22:27.065Z,13.97
2018-09-27T09:24:54.033Z,17.03
2018-09-27T09:27:20.986Z,16.80
2018-09-27T09:29:47.936Z,15.03
2018-09-27T09:32:14.879Z,11.60
2018-09-27T09:34:41.817Z,14.13
2018-09-27T09:37:08.768Z,15.00
2018-09-27T09:39:35.704Z,14.03
2018-09-27T09:42:02.649Z,16.20
2018-09-27T09:44:29.557Z,20.07
2018-09-27T09:46:56.524Z,14.90
2018-09-27T09:49:23.453Z,12.00
2018-09-27T09:51:50.384Z,16.50
2018-09-27T09:54:17.300Z,18.00
2018-09-27T09:56:44.244Z,17.30
2018-09-27T09:59:11.197Z,16.57
2018-09-27T10:01:38.116Z,12.67
2018-09-27T10:04:05.061Z,13.70
2018-09-27T10:06:32.088Z,18.00
2018-09-27T10:08:59.011Z,14.83
2018-09-27T10:11:25.941Z,15.63
2018-09-27T10:13:52.866Z,12.20
2018-09-27T10:16:19.793Z,16.50
2018-09-27T10:18:46.716Z,14.83
2018-09-27T10:21:13.661Z,15.37
2018-09-27T10:23:40.585Z,15.60
2018-09-27T10:26:07.540Z,17.20
2018-09-27T10:28:34.461Z,15.63
2018-09-27T10:31:01.418Z,15.53
2018-09-27T10:33:28.334Z,17.20
2018-09-27T10:35:55.269Z,17.67
2018-09-27T10:38:22.177Z,15.93
2018-09-27T10:40:49.096Z,13.10
2018-09-27T10:43:16.034Z,14.27
2018-09-27T10:45:42.941Z,15.07
2018-09-27T10:48:09.869Z,14.63
2018-09-27T10:50:36.840Z,14.10
2018-09-27T10:53:03.779Z,17.17
2018-09-27T10:55:30.723Z,12.47
2018-09-27T10:57:57.733Z,12.67
2018-09-27T11:00:24.666Z,12.03
2018-09-27T11:02:52.401Z,13.43
2018-09-27T11:05:19.317Z,11.13
2018-09-27T11:07:46.276Z,10.53
2018-09-27T11:10:13.204Z,12.17
2018-09-27T11:12:40.494Z,13.53
2018-09-27T11:15:07.434Z,11.50
2018-09-27T11:17:34.365Z,12.33
2018-09-27T11:20:01.301Z,10.60
2018-09-27T11:22:28.231Z,9.63
2018-09-27T11:24:55.169Z,10.30
2018-09-27T11:27:22.094Z,13.97
2018-09-27T11:29:54.779Z,12.53
2018-09-27T11:32:27.550Z,13.90
2018-09-27T11:34:54.483Z,10.70
2018-09-27T11:37:21.462Z,10.77
2018-09-27T11:39:48.397Z,14.47
2018-09-27T11:42:15.366Z,10.20
2018-09-27T11:44:42.305Z,12.23
2018-09-27T11:47:09.242Z,11.83
2018-09-27T11:49:36.299Z,10.63
2018-09-27T11:52:03.161Z,9.80
2018-09-27T11:54:30.093Z,10.87
2018-09-27T11:56:57.038Z,10.67
2018-09-27T11:59:23.970Z,10.03
2018-09-27T12:01:50.950Z,9.27
2018-09-27T12:04:17.883Z,10.40
2018-09-27T12:06:44.872Z,9.63
2018-09-27T12:09:12.354Z,8.03
2018-09-27T12:11:40.149Z,7.87
2018-09-27T12:14:07.575Z,9.93
2018-09-27T12:16:34.523Z,9.10
2018-09-27T12:19:01.517Z,10.90
2018-09-27T12:21:28.454Z,9.07
2018-09-27T12:23:55.413Z,10.20
2018-09-27T12:26:22.360Z,11.50
2018-09-27T12:28:49.293Z,13.83
2018-09-27T12:31:16.221Z,10.60
2018-09-27T12:33:43.177Z,10.23
2018-09-27T12:36:10.338Z,10.47
2018-09-27T12:38:37.264Z,11.23
2018-09-27T12:41:07.004Z,10.20
2018-09-27T12:43:35.272Z,12.57
2018-09-27T12:46:03.055Z,11.50
2018-09-27T12:48:34.393Z,13.13
2018-09-27T12:51:02.630Z,11.10
2018-09-27T12:53:31.196Z,11.17
2018-09-27T12:56:03.459Z,11.67
2018-09-27T12:58:30.752Z,11.30
2018-09-27T13:00:57.668Z,10.87
2018-09-27T13:03:24.603Z,11.33
2018-09-27T13:05:51.569Z,11.47
2018-09-27T13:08:18.514Z,11.23
2018-09-27T13:10:45.450Z,11.43
2018-09-27T13:13:12.483Z,12.00
2018-09-27T13:15:39.326Z,12.77
2018-09-27T13:18:06.263Z,11.73
2018-09-27T13:20:33.233Z,12.53
2018-09-27T13:23:00.195Z,12.63
2018-09-27T13:25:27.109Z,11.80
2018-09-27T13:27:54.116Z,14.07
2018-09-27T13:30:20.602Z,14.03
2018-09-27T13:32:47.540Z,13.60
2018-09-27T13:35:14.561Z,13.60
2018-09-27T13:37:41.532Z,14.23
2018-09-27T13:40:08.466Z,13.33
2018-09-27T13:42:36.002Z,14.00
2018-09-27T13:45:03.032Z,13.40
2018-09-27T13:47:29.894Z,13.10
2018-09-27T13:49:56.924Z,13.17
2018-09-27T13:52:23.837Z,13.30
2018-09-27T13:54:50.796Z,14.00
2018-09-27T13:57:17.726Z,13.47
2018-09-27T13:59:44.661Z,13.00
2018-09-27T14:02:11.577Z,12.80
2018-09-27T14:04:38.508Z,12.10
2018-09-27T14:07:05.432Z,13.10
2018-09-27T14:09:32.406Z,11.30
2018-09-27T14:11:59.329Z,11.80
2018-09-27T14:14:26.311Z,11.47
2018-09-27T14:16:53.269Z,11.47
2018-09-27T14:19:20.167Z,12.13
2018-09-27T14:21:47.088Z,12.00
2018-09-27T14:24:14.064Z,12.63
2018-09-27T14:26:41.040Z,12.50
2018-09-27T14:29:13.885Z,12.77
2018-09-27T14:31:40.860Z,12.17
2018-09-27T14:34:08.024Z,11.67
2018-09-27T14:36:34.968Z,11.33
2018-09-27T14:39:01.932Z,12.30
2018-09-27T14:41:28.864Z,11.80
2018-09-27T14:43:55.817Z,10.70
2018-09-27T14:46:22.769Z,13.50
2018-09-27T14:48:49.721Z,11.43
2018-09-27T14:51:16.677Z,11.37
2018-09-27T14:53:43.644Z,10.33
2018-09-27T14:56:10.636Z,11.70
2018-09-27T14:58:37.761Z,11.50
2018-09-27T15:01:04.732Z,10.47
2018-09-27T15:03:31.865Z,10.70
2018-09-27T15:05:58.844Z,10.83
2018-09-27T15:08:25.781Z,10.23
2018-09-27T15:10:52.827Z,10.97
2018-09-27T15:13:19.706Z,10.63
2018-09-27T15:15:46.677Z,10.93
2018-09-27T15:18:13.636Z,10.30
2018-09-27T15:20:40.593Z,10.40
2018-09-27T15:23:07.541Z,11.60
2018-09-27T15:25:34.501Z,9.77
2018-09-27T15:28:01.445Z,9.40
2018-09-27T15:30:28.383Z,9.70
2018-09-27T15:32:55.351Z,10.27
2018-09-27T15:35:22.334Z,9.23
2018-09-27T15:37:49.260Z,9.37
2018-09-27T15:40:16.225Z,12.03
2018-09-27T15:42:50.094Z,9.13
2018-09-27T15:45:17.049Z,10.13
2018-09-27T15:47:44.013Z,9.90
2018-09-27T15:50:10.953Z,9.33
2018-09-27T15:52:37.918Z,10.97
2018-09-27T15:55:04.880Z,9.87
2018-09-27T15:57:31.838Z,9.10
2018-09-27T15:59:58.780Z,9.23
2018-09-27T16:02:25.713Z,9.77
2018-09-27T16:04:52.671Z,9.60
2018-09-27T16:07:19.618Z,10.33
2018-09-27T16:09:46.580Z,11.47
2018-09-27T16:12:13.526Z,11.30
2018-09-27T16:14:40.493Z,9.23
2018-09-27T16:17:07.435Z,12.47
2018-09-27T16:19:34.423Z,10.90
2018-09-27T16:22:01.428Z,9.33
2018-09-27T16:24:28.309Z,11.67
2018-09-27T16:26:55.264Z,10.60
2018-09-27T16:29:22.215Z,10.93
2018-09-27T16:31:49.169Z,10.07
2018-09-27T16:34:16.120Z,11.00
2018-09-27T16:36:43.077Z,9.33
2018-09-27T16:39:10.130Z,12.83
2018-09-27T16:41:37.421Z,9.23
2018-09-27T16:44:04.329Z,10.20
2018-09-27T16:46:31.281Z,12.13
2018-09-27T16:48:58.266Z,9.13
2018-09-27T16:51:25.213Z,9.50
2018-09-27T16:53:52.185Z,11.70
2018-09-27T16:56:19.151Z,10.83
2018-09-27T16:58:46.119Z,10.63
2018-09-27T17:01:13.077Z,8.30
2018-09-27T17:03:40.005Z,8.37
2018-09-27T17:06:06.957Z,7.47
2018-09-27T17:08:33.896Z,8.53
2018-09-27T17:11:00.867Z,6.97
2018-09-27T17:13:27.819Z,5.73
2018-09-27T17:15:54.752Z,5.17
2018-09-27T17:18:21.681Z,5.83
2018-09-27T17:20:48.624Z,5.53
2018-09-27T17:23:15.573Z,5.63
2018-09-27T17:25:42.521Z,6.80
2018-09-27T17:28:09.465Z,5.23
2018-09-27T17:30:36.416Z,3.73
2018-09-27T17:33:03.395Z,4.77
2018-09-27T17:35:30.406Z,5.13
2018-09-27T17:37:57.980Z,3.70
2018-09-27T17:40:25.010Z,6.20
2018-09-27T17:42:51.916Z,4.27
2018-09-27T17:45:19.085Z,3.70
2018-09-27T17:47:46.054Z,3.90
2018-09-27T17:50:13.008Z,5.30
2018-09-27T17:52:40.112Z,4.43
2018-09-27T17:55:07.701Z,4.30
2018-09-27T17:57:34.654Z,3.50
2018-09-27T18:00:01.599Z,5.07
2018-09-27T18:02:28.562Z,7.87
2018-09-27T18:04:55.507Z,5.03
2018-09-27T18:07:23.274Z,5.27
2018-09-27T18:09:50.214Z,6.67
2018-09-27T18:12:17.176Z,4.47
2018-09-27T18:14:44.145Z,4.87
2018-09-27T18:17:11.362Z,6.40
2018-09-27T18:19:38.335Z,5.13
2018-09-27T18:22:05.308Z,3.80
2018-09-27T18:24:32.250Z,4.63
2018-09-27T18:26:59.214Z,4.17
2018-09-27T18:29:26.160Z,4.67
2018-09-27T18:31:53.113Z,4.93
2018-09-27T18:34:20.040Z,4.63
2018-09-27T18:36:47.086Z,3.50
2018-09-27T18:39:14.017Z,3.90
2018-09-27T18:41:41.452Z,3.57
2018-09-27T18:44:08.676Z,5.33
2018-09-27T18:46:35.657Z,4.03
2018-09-27T18:49:02.581Z,4.70
2018-09-27T18:51:29.589Z,5.93
2018-09-27T18:53:56.452Z,7.73
2018-09-27T18:56:23.396Z,5.07
2018-09-27T18:58:50.317Z,4.97
2018-09-27T19:01:17.257Z,4.17
2018-09-27T19:03:44.232Z,5.77
2018-09-27T19:06:11.122Z,6.03
2018-09-27T19:08:38.061Z,4.83
2018-09-27T19:11:05.075Z,6.53
2018-09-27T19:13:32.022Z,5.20
2018-09-27T19:15:58.968Z,4.40
2018-09-27T19:18:25.898Z,5.10
2018-09-27T19:20:52.816Z,6.53
2018-09-27T19:23:19.808Z,8.43
2018-09-27T19:25:46.896Z,7.57
2018-09-27T19:28:13.833Z,6.57
2018-09-27T19:30:40.756Z,8.23
2018-09-27T19:33:07.716Z,6.53
2018-09-27T19:35:34.724Z,6.47
2018-09-27T19:38:01.937Z,6.93
2018-09-27T19:40:28.876Z,7.93
2018-09-27T19:42:55.827Z,11.30
2018-09-27T19:45:22.770Z,10.33
2018-09-27T19:47:49.712Z,10.30
2018-09-27T19:50:16.692Z,9.70
2018-09-27T19:52:43.634Z,13.73
2018-09-27T19:55:10.581Z,12.97
2018-09-27T19:57:37.524Z,12.17
2018-09-27T20:00:04.749Z,13.33
2018-09-27T20:02:31.698Z,14.57
2018-09-27T20:04:58.637Z,12.20
2018-09-27T20:07:25.613Z,11.57
2018-09-27T20:09:52.641Z,13.03
2018-09-27T20:12:19.608Z,13.50
2018-09-27T20:14:46.537Z,12.80
2018-09-27T20:17:13.490Z,17.43
2018-09-27T20:19:40.430Z,13.77
2018-09-27T20:22:08.358Z,14.73
2018-09-27T20:24:35.276Z,16.40
2018-09-27T20:27:02.205Z,16.07
2018-09-27T20:29:29.216Z,17.87
2018-09-27T20:31:56.169Z,15.73
2018-09-27T20:34:23.184Z,17.47
2018-09-27T20:36:50.100Z,16.37
2018-09-27T20:39:17.056Z,16.00
2018-09-27T20:41:43.993Z,14.47
2018-09-27T20:44:10.916Z,15.97
2018-09-27T20:46:37.862Z,13.30
2018-09-27T20:49:04.833Z,16.30
2018-09-27T20:51:31.877Z,15.97
2018-09-27T20:53:58.876Z,13.47
2018-09-27T20:56:25.785Z,13.93
2018-09-27T20:58:52.741Z,12.07
2018-09-27T21:01:19.672Z,11.77
2018-09-27T21:03:46.623Z,15.17
2018-09-27T21:06:13.593Z,16.30
2018-09-27T21:08:40.566Z,14.07
2018-09-27T21:11:07.537Z,15.40
2018-09-27T21:13:34.469Z,15.83
2018-09-27T21:16:01.447Z,15.47
2018-09-27T21:18:28.417Z,16.70
2018-09-27T21:20:55.362Z,15.37
2018-09-27T21:23:22.304Z,11.90
2018-09-27T21:25:49.233Z,11.53
2018-09-27T21:28:16.225Z,13.60
2018-09-27T21:30:43.220Z,15.07
2018-09-27T21:33:10.464Z,14.40
2018-09-27T21:35:37.454Z,12.70
2018-09-27T21:38:04.489Z,13.37
2018-09-27T21:40:31.412Z,18.27
2018-09-27T21:42:58.488Z,12.63
2018-09-27T21:45:25.430Z,15.23
2018-09-27T21:47:52.357Z,14.50
2018-09-27T21:50:19.345Z,17.60
2018-09-27T21:52:46.228Z,15.10
2018-09-27T21:55:13.153Z,12.43
2018-09-27T21:57:40.073Z,12.30
2018-09-27T22:00:07.501Z,10.50
2018-09-27T22:02:34.437Z,11.07
2018-09-27T22:05:01.400Z,13.23
2018-09-27T22:07:28.350Z,11.30
2018-09-27T22:09:56.546Z,12.70
2018-09-27T22:12:23.482Z,15.57
2018-09-27T22:14:50.414Z,9.43
2018-09-27T22:17:17.325Z,14.77
2018-09-27T22:19:44.253Z,12.67
2018-09-27T22:22:11.173Z,11.63
2018-09-27T22:24:38.102Z,17.37
2018-09-27T22:27:05.072Z,15.97
2018-09-27T22:29:32.009Z,14.97
2018-09-27T22:31:58.940Z,17.37
2018-09-27T22:34:25.905Z,16.73
2018-09-27T22:36:52.894Z,12.67
2018-09-27T22:39:19.911Z,16.73
2018-09-27T22:41:46.857Z,19.00
2018-09-27T22:44:15.359Z,14.17
2018-09-27T22:46:43.012Z,12.77
2018-09-27T22:49:10.512Z,14.27
2018-09-27T22:51:37.553Z,19.23
2018-09-27T22:54:05.382Z,12.13
2018-09-27T22:56:33.247Z,15.53
2018-09-27T22:59:00.755Z,14.13
2018-09-27T23:01:27.713Z,16.07
2018-09-27T23:03:55.189Z,15.00
2018-09-27T23:06:22.734Z,18.10
2018-09-27T23:08:49.663Z,17.03
2018-09-27T23:11:17.539Z,14.93
2018-09-27T23:13:45.005Z,16.93
2018-09-27T23:16:11.934Z,15.47
2018-09-27T23:18:38.897Z,16.13
2018-09-27T23:21:06.160Z,14.33
2018-09-27T23:23:33.253Z,18.70
2018-09-27T23:26:01.346Z,15.27
2018-09-27T23:28:28.362Z,12.63
2018-09-27T23:30:56.457Z,15.93
2018-09-27T23:33:24.229Z,17.60
2018-09-27T23:35:52.119Z,13.63
2018-09-27T23:38:19.089Z,15.03
2018-09-27T23:40:46.045Z,13.20
2018-09-27T23:43:12.989Z,9.97
2018-09-27T23:45:39.920Z,7.90
2018-09-27T23:48:06.863Z,5.50
2018-09-27T23:50:33.809Z,4.90
2018-09-27T23:53:00.756Z,9.73
2018-09-27T23:55:27.709Z,5.50
2018-09-27T23:57:54.685Z,5.20
